sensor_id;sensor_type;location;lat;lon;timestamp;pressure;altitude;pressure_sealevel;temperature;humidity
4745;BME280;2386;42.138;24.746;2022-12-29T07:29:38;100834.03;;;6.38;100.00
4745;BME280;2386;42.138;24.746;2022-12-29T07:32:04;100826.50;;;6.25;100.00
4745;BME280;2386;42.138;24.746;2022-12-29T07:34:29;100834.22;;;6.36;100.00
4745;BME280;2386;42.138;24.746;2022-12-29T07:36:54;100827.78;;;6.45;100.00
4745;BME280;2386;42.138;24.746;2022-12-29T07:39:20;100816.69;;;6.40;100.00
4745;BME280;2386;42.138;24.746;2022-12-29T07:41:46;100829.47;;;6.46;100.00
4745;BME280;2386;42.138;24.746;2022-12-29T07:44:11;100817.63;;;6.55;100.00
4745;BME280;2386;42.138;24.746;2022-12-29T07:46:37;100812.59;;;6.52;100.00
4745;BME280;2386;42.138;24.746;2022-12-29T07:49:02;100818.28;;;6.66;100.00
4745;BME280;2386;42.138;24.746;2022-12-29T07:51:29;100818.63;;;6.63;100.00
4745;BME280;2386;42.138;24.746;2022-12-29T07:53:54;100829.56;;;6.92;100.00
4745;BME280;2386;42.138;24.746;2022-12-29T07:56:20;100817.09;;;6.91;100.00
4745;BME280;2386;42.138;24.746;2022-12-29T07:58:45;100828.84;;;6.98;100.00
4745;BME280;2386;42.138;24.746;2022-12-29T08:01:10;100829.34;;;6.71;100.00
4745;BME280;2386;42.138;24.746;2022-12-29T08:03:36;100830.19;;;6.71;100.00
4745;BME280;2386;42.138;24.746;2022-12-29T08:06:02;100827.41;;;6.87;100.00
4745;BME280;2386;42.138;24.746;2022-12-29T08:08:40;100821.88;;;6.81;100.00
4745;BME280;2386;42.138;24.746;2022-12-29T08:11:05;100829.50;;;7.31;100.00
4745;BME280;2386;42.138;24.746;2022-12-29T08:13:31;100832.09;;;7.62;100.00
4745;BME280;2386;42.138;24.746;2022-12-29T08:15:57;100832.81;;;7.56;100.00
4745;BME280;2386;42.138;24.746;2022-12-29T08:18:24;100827.19;;;7.20;100.00
4745;BME280;2386;42.138;24.746;2022-12-29T08:20:50;100815.88;;;7.24;100.00
4745;BME280;2386;42.138;24.746;2022-12-29T08:23:15;100831.59;;;7.21;100.00
4745;BME280;2386;42.138;24.746;2022-12-29T08:25:41;100826.06;;;7.14;100.00
4745;BME280;2386;42.138;24.746;2022-12-29T08:28:07;100832.88;;;7.02;100.00
4745;BME280;2386;42.138;24.746;2022-12-29T08:30:32;100826.28;;;7.05;100.00
4745;BME280;2386;42.138;24.746;2022-12-29T08:32:58;100822.16;;;7.17;100.00
4745;BME280;2386;42.138;24.746;2022-12-29T08:35:23;100831.38;;;7.45;100.00
4745;BME280;2386;42.138;24.746;2022-12-29T08:37:49;100819.97;;;7.58;100.00
4745;BME280;2386;42.138;24.746;2022-12-29T08:40:14;100813.44;;;7.52;100.00
4745;BME280;2386;42.138;24.746;2022-12-29T08:42:40;100820.59;;;7.83;100.00
4745;BME280;2386;42.138;24.746;2022-12-29T08:45:06;100814.34;;;7.82;100.00
4745;BME280;2386;42.138;24.746;2022-12-29T08:47:32;100810.56;;;7.91;100.00
4745;BME280;2386;42.138;24.746;2022-12-29T08:49:57;100812.63;;;8.04;100.00
4745;BME280;2386;42.138;24.746;2022-12-29T08:52:22;100798.75;;;8.07;100.00
4745;BME280;2386;42.138;24.746;2022-12-29T08:54:48;100802.09;;;7.95;100.00
4745;BME280;2386;42.138;24.746;2022-12-29T08:57:13;100809.38;;;8.09;100.00
4745;BME280;2386;42.138;24.746;2022-12-29T08:59:39;100796.78;;;8.01;100.00
4745;BME280;2386;42.138;24.746;2022-12-29T09:02:04;100802.72;;;8.26;100.00
4745;BME280;2386;42.138;24.746;2022-12-29T09:04:30;100790.53;;;8.45;100.00
4745;BME280;2386;42.138;24.746;2022-12-29T09:06:55;100792.13;;;8.39;100.00
4745;BME280;2386;42.138;24.746;2022-12-29T09:09:21;100797.63;;;8.46;100.00
4745;BME280;2386;42.138;24.746;2022-12-29T09:11:46;100786.63;;;8.47;100.00
4745;BME280;2386;42.138;24.746;2022-12-29T09:14:12;100779.06;;;8.28;100.00
4745;BME280;2386;42.138;24.746;2022-12-29T09:16:38;100778.78;;;8.52;100.00
4745;BME280;2386;42.138;24.746;2022-12-29T09:19:04;100771.44;;;8.46;100.00
4745;BME280;2386;42.138;24.746;2022-12-29T09:21:29;100773.81;;;8.71;100.00
4745;BME280;2386;42.138;24.746;2022-12-29T09:23:55;100764.03;;;8.70;100.00
4745;BME280;2386;42.138;24.746;2022-12-29T09:26:20;100770.81;;;8.80;100.00
4745;BME280;2386;42.138;24.746;2022-12-29T09:28:46;100762.69;;;8.80;100.00
4745;BME280;2386;42.138;24.746;2022-12-29T09:31:12;100760.69;;;8.89;100.00
4745;BME280;2386;42.138;24.746;2022-12-29T09:33:37;100744.66;;;8.87;100.00
4745;BME280;2386;42.138;24.746;2022-12-29T09:36:03;100742.06;;;9.01;100.00
4745;BME280;2386;42.138;24.746;2022-12-29T09:38:29;100739.22;;;9.09;100.00
4745;BME280;2386;42.138;24.746;2022-12-29T09:40:58;100737.34;;;9.09;100.00
4745;BME280;2386;42.138;24.746;2022-12-29T09:49:05;100723.00;;;9.58;100.00
4745;BME280;2386;42.138;24.746;2022-12-29T09:51:32;100719.72;;;9.69;100.00
4745;BME280;2386;42.138;24.746;2022-12-29T09:54:05;100718.53;;;9.78;100.00
4745;BME280;2386;42.138;24.746;2022-12-29T09:56:39;100712.72;;;9.81;100.00
4745;BME280;2386;42.138;24.746;2022-12-29T09:59:15;100701.31;;;9.93;100.00
4745;BME280;2386;42.138;24.746;2022-12-29T10:02:12;100697.59;;;10.00;99.91
4745;BME280;2386;42.138;24.746;2022-12-29T10:04:40;100684.94;;;10.07;98.97
4745;BME280;2386;42.138;24.746;2022-12-29T10:10:26;100692.94;;;10.22;99.23
4745;BME280;2386;42.138;24.746;2022-12-29T10:21:15;100681.38;;;10.61;96.36
4745;BME280;2386;42.138;24.746;2022-12-29T10:23:52;100673.88;;;10.70;95.69
4745;BME280;2386;42.138;24.746;2022-12-29T10:26:20;100664.50;;;10.72;94.90
4745;BME280;2386;42.138;24.746;2022-12-29T10:31:33;100673.06;;;10.76;93.36
4745;BME280;2386;42.138;24.746;2022-12-29T10:34:05;100666.59;;;10.77;93.41
4745;BME280;2386;42.138;24.746;2022-12-29T10:36:42;100657.84;;;10.88;95.29
4745;BME280;2386;42.138;24.746;2022-12-29T10:44:24;100652.63;;;11.00;90.63
4745;BME280;2386;42.138;24.746;2022-12-29T10:47:03;100654.31;;;11.07;90.68
4745;BME280;2386;42.138;24.746;2022-12-29T10:49:30;100657.66;;;11.09;90.67
4745;BME280;2386;42.138;24.746;2022-12-29T10:51:59;100657.44;;;11.04;86.82
4745;BME280;2386;42.138;24.746;2022-12-29T10:54:38;100652.66;;;11.06;87.63
4745;BME280;2386;42.138;24.746;2022-12-29T10:57:35;100652.84;;;11.11;87.85
4745;BME280;2386;42.138;24.746;2022-12-29T11:00:12;100651.59;;;11.07;87.55
4745;BME280;2386;42.138;24.746;2022-12-29T11:08:00;100634.25;;;11.08;87.58
4745;BME280;2386;42.138;24.746;2022-12-29T11:13:00;100633.84;;;11.11;87.03
4745;BME280;2386;42.138;24.746;2022-12-29T11:15:27;100633.41;;;11.14;85.79
4745;BME280;2386;42.138;24.746;2022-12-29T11:17:56;100617.56;;;11.11;85.49
4745;BME280;2386;42.138;24.746;2022-12-29T11:22:59;100618.19;;;11.07;86.87
4745;BME280;2386;42.138;24.746;2022-12-29T11:25:25;100617.56;;;11.11;87.95
4745;BME280;2386;42.138;24.746;2022-12-29T11:27:56;100612.28;;;11.16;88.01
4745;BME280;2386;42.138;24.746;2022-12-29T11:30:24;100613.34;;;11.22;86.95
4745;BME280;2386;42.138;24.746;2022-12-29T11:32:52;100615.63;;;11.25;86.37
4745;BME280;2386;42.138;24.746;2022-12-29T11:35:41;100606.03;;;11.23;86.87
4745;BME280;2386;42.138;24.746;2022-12-29T11:38:19;100608.75;;;11.23;85.97
4745;BME280;2386;42.138;24.746;2022-12-29T11:40:45;100607.69;;;11.30;85.57
4745;BME280;2386;42.138;24.746;2022-12-29T11:43:32;100608.72;;;11.36;85.43
4745;BME280;2386;42.138;24.746;2022-12-29T11:45:59;100608.72;;;11.36;84.77
4745;BME280;2386;42.138;24.746;2022-12-29T11:48:32;100604.97;;;11.37;85.35
4745;BME280;2386;42.138;24.746;2022-12-29T11:50:59;100597.88;;;11.36;84.17
4745;BME280;2386;42.138;24.746;2022-12-29T11:56:12;100595.53;;;11.46;86.01
4745;BME280;2386;42.138;24.746;2022-12-29T11:58:39;100581.97;;;11.46;84.25
4745;BME280;2386;42.138;24.746;2022-12-29T12:03:46;100582.34;;;11.56;85.20
4745;BME280;2386;42.138;24.746;2022-12-29T12:06:18;100575.28;;;11.42;83.16
4745;BME280;2386;42.138;24.746;2022-12-29T12:08:54;100578.63;;;11.44;83.87
4745;BME280;2386;42.138;24.746;2022-12-29T12:11:39;100578.81;;;11.49;84.06
4745;BME280;2386;42.138;24.746;2022-12-29T12:16:40;100571.91;;;11.60;85.95
4745;BME280;2386;42.138;24.746;2022-12-29T12:22:10;100550.94;;;11.73;83.40
4745;BME280;2386;42.138;24.746;2022-12-29T12:24:45;100562.25;;;11.70;83.13
4745;BME280;2386;42.138;24.746;2022-12-29T12:27:13;100557.84;;;11.69;83.09
4745;BME280;2386;42.138;24.746;2022-12-29T12:32:39;100550.56;;;11.63;83.42
4745;BME280;2386;42.138;24.746;2022-12-29T12:35:13;100552.88;;;11.60;84.37
4745;BME280;2386;42.138;24.746;2022-12-29T12:37:52;100556.03;;;11.57;84.46
4745;BME280;2386;42.138;24.746;2022-12-29T12:40:43;100553.50;;;11.55;84.56
4745;BME280;2386;42.138;24.746;2022-12-29T12:49:01;100550.59;;;11.57;84.41
4745;BME280;2386;42.138;24.746;2022-12-29T13:01:32;100549.13;;;11.54;84.76
4745;BME280;2386;42.138;24.746;2022-12-29T13:06:37;100551.00;;;11.53;86.22
4745;BME280;2386;42.138;24.746;2022-12-29T13:12:07;100553.97;;;11.45;82.94
4745;BME280;2386;42.138;24.746;2022-12-29T13:23:07;100552.47;;;11.56;84.38
4745;BME280;2386;42.138;24.746;2022-12-29T13:25:41;100553.09;;;11.58;83.22
4745;BME280;2386;42.138;24.746;2022-12-29T13:34:10;100540.56;;;11.57;83.29
4745;BME280;2386;42.138;24.746;2022-12-29T13:36:49;100549.56;;;11.51;83.57
4745;BME280;2386;42.138;24.746;2022-12-29T13:39:20;100541.00;;;11.47;81.99
4745;BME280;2386;42.138;24.746;2022-12-29T13:41:51;100532.22;;;11.45;82.39
4745;BME280;2386;42.138;24.746;2022-12-29T13:44:22;100553.50;;;11.55;83.25
4745;BME280;2386;42.138;24.746;2022-12-29T13:46:59;100553.09;;;11.58;84.43
4745;BME280;2386;42.138;24.746;2022-12-29T13:49:55;100550.19;;;11.53;85.10
4745;BME280;2386;42.138;24.746;2022-12-29T13:55:35;100553.94;;;11.52;86.49
4745;BME280;2386;42.138;24.746;2022-12-29T14:03:55;100541.88;;;11.35;86.83
4745;BME280;2386;42.138;24.746;2022-12-29T14:06:26;100552.94;;;11.40;85.56
4745;BME280;2386;42.138;24.746;2022-12-29T14:09:06;100548.78;;;11.31;85.23
4745;BME280;2386;42.138;24.746;2022-12-29T14:11:40;100561.50;;;11.37;85.97
4745;BME280;2386;42.138;24.746;2022-12-29T14:14:25;100546.28;;;11.23;87.54
4745;BME280;2386;42.138;24.746;2022-12-29T15:16:29;100572.66;;;10.63;99.05
4745;BME280;2386;42.138;24.746;2022-12-29T15:18:57;100563.66;;;10.56;97.94
4745;BME280;2386;42.138;24.746;2022-12-29T15:21:33;100566.38;;;10.49;97.61
4745;BME280;2386;42.138;24.746;2022-12-29T15:24:00;100568.25;;;10.42;98.86
4745;BME280;2386;42.138;24.746;2022-12-29T15:26:44;100572.81;;;10.41;100.00
4745;BME280;2386;42.138;24.746;2022-12-29T15:29:43;100572.00;;;10.34;100.00
4745;BME280;2386;42.138;24.746;2022-12-29T15:34:40;100586.59;;;10.20;100.00
4745;BME280;2386;42.138;24.746;2022-12-29T15:37:07;100579.44;;;10.19;100.00
4745;BME280;2386;42.138;24.746;2022-12-29T15:39:33;100577.34;;;10.14;100.00
4745;BME280;2386;42.138;24.746;2022-12-29T15:42:00;100577.53;;;10.06;100.00
4745;BME280;2386;42.138;24.746;2022-12-29T15:44:37;100573.34;;;10.04;100.00
4745;BME280;2386;42.138;24.746;2022-12-29T15:47:04;100574.34;;;9.89;100.00
4745;BME280;2386;42.138;24.746;2022-12-29T15:49:31;100561.38;;;9.78;100.00
4745;BME280;2386;42.138;24.746;2022-12-29T15:51:57;100572.63;;;9.75;100.00
4745;BME280;2386;42.138;24.746;2022-12-29T15:54:23;100587.47;;;9.86;100.00
4745;BME280;2386;42.138;24.746;2022-12-29T15:56:50;100588.06;;;9.81;100.00
4745;BME280;2386;42.138;24.746;2022-12-29T16:02:39;100570.09;;;9.67;100.00
4745;BME280;2386;42.138;24.746;2022-12-29T16:05:17;100558.00;;;9.63;100.00
4745;BME280;2386;42.138;24.746;2022-12-29T16:08:01;100564.22;;;9.57;100.00
4745;BME280;2386;42.138;24.746;2022-12-29T16:10:39;100571.69;;;9.48;100.00
4745;BME280;2386;42.138;24.746;2022-12-29T16:13:20;100598.59;;;9.57;100.00
4745;BME280;2386;42.138;24.746;2022-12-29T16:15:52;100587.50;;;9.45;100.00
4745;BME280;2386;42.138;24.746;2022-12-29T16:18:29;100595.63;;;9.45;100.00
4745;BME280;2386;42.138;24.746;2022-12-29T16:20:56;100585.31;;;9.27;100.00
4745;BME280;2386;42.138;24.746;2022-12-29T16:27:20;100592.81;;;9.32;100.00
4745;BME280;2386;42.138;24.746;2022-12-29T16:29:51;100584.03;;;9.23;100.00
4745;BME280;2386;42.138;24.746;2022-12-29T16:32:29;100605.34;;;9.33;100.00
4745;BME280;2386;42.138;24.746;2022-12-29T16:37:37;100585.81;;;9.09;100.00
4745;BME280;2386;42.138;24.746;2022-12-29T16:40:30;100610.66;;;9.19;100.00
4745;BME280;2386;42.138;24.746;2022-12-29T16:43:20;100594.25;;;9.00;100.00
4745;BME280;2386;42.138;24.746;2022-12-29T16:46:16;100599.91;;;9.05;100.00
